sensor_id;sensor_type;location;lat;lon;timestamp;P1;durP1;ratioP1;P2;durP2;ratioP2
64061;SDS011;50308;47.438;-1.528;2023-10-13T00:00:28;10.98;;;5.75;;
64061;SDS011;50308;47.438;-1.528;2023-10-13T00:03:01;9.00;;;5.10;;
64061;SDS011;50308;47.438;-1.528;2023-10-13T00:05:28;7.28;;;5.00;;
64061;SDS011;50308;47.438;-1.528;2023-10-13T00:08:01;10.65;;;5.68;;
64061;SDS011;50308;47.438;-1.528;2023-10-13T00:10:28;10.38;;;6.13;;
64061;SDS011;50308;47.438;-1.528;2023-10-13T00:12:55;6.60;;;5.32;;
64061;SDS011;50308;47.438;-1.528;2023-10-13T00:15:31;9.60;;;5.47;;
64061;SDS011;50308;47.438;-1.528;2023-10-13T00:18:06;11.95;;;5.53;;
64061;SDS011;50308;47.438;-1.528;2023-10-13T00:20:41;9.85;;;5.78;;
64061;SDS011;50308;47.438;-1.528;2023-10-13T00:23:13;9.20;;;5.47;;
64061;SDS011;50308;47.438;-1.528;2023-10-13T00:25:38;12.38;;;5.78;;
64061;SDS011;50308;47.438;-1.528;2023-10-13T00:28:18;10.77;;;5.78;;
64061;SDS011;50308;47.438;-1.528;2023-10-13T00:30:49;10.57;;;5.43;;
64061;SDS011;50308;47.438;-1.528;2023-10-13T00:33:25;8.43;;;5.65;;
64061;SDS011;50308;47.438;-1.528;2023-10-13T00:35:52;8.70;;;5.38;;
64061;SDS011;50308;47.438;-1.528;2023-10-13T00:40:49;8.25;;;5.50;;
64061;SDS011;50308;47.438;-1.528;2023-10-13T00:43:19;6.43;;;5.60;;
64061;SDS011;50308;47.438;-1.528;2023-10-13T00:45:46;10.30;;;6.07;;
64061;SDS011;50308;47.438;-1.528;2023-10-13T00:48:23;12.50;;;6.20;;
64061;SDS011;50308;47.438;-1.528;2023-10-13T00:51:06;14.90;;;6.22;;
64061;SDS011;50308;47.438;-1.528;2023-10-13T00:53:32;12.80;;;5.65;;
64061;SDS011;50308;47.438;-1.528;2023-10-13T00:56:02;8.40;;;5.80;;
64061;SDS011;50308;47.438;-1.528;2023-10-13T00:58:35;12.75;;;6.47;;
64061;SDS011;50308;47.438;-1.528;2023-10-13T01:01:04;9.07;;;6.20;;
64061;SDS011;50308;47.438;-1.528;2023-10-13T01:03:54;13.85;;;5.90;;
64061;SDS011;50308;47.438;-1.528;2023-10-13T01:06:24;14.82;;;6.28;;
64061;SDS011;50308;47.438;-1.528;2023-10-13T01:08:56;12.63;;;5.95;;
64061;SDS011;50308;47.438;-1.528;2023-10-13T01:11:24;14.70;;;6.25;;
64061;SDS011;50308;47.438;-1.528;2023-10-13T01:13:52;9.13;;;6.15;;
64061;SDS011;50308;47.438;-1.528;2023-10-13T01:16:19;11.05;;;5.97;;
64061;SDS011;50308;47.438;-1.528;2023-10-13T01:18:49;10.63;;;5.97;;
64061;SDS011;50308;47.438;-1.528;2023-10-13T01:21:15;12.07;;;5.97;;
64061;SDS011;50308;47.438;-1.528;2023-10-13T01:23:44;10.82;;;6.30;;
64061;SDS011;50308;47.438;-1.528;2023-10-13T01:26:11;10.73;;;5.55;;
64061;SDS011;50308;47.438;-1.528;2023-10-13T01:28:41;9.35;;;6.07;;
64061;SDS011;50308;47.438;-1.528;2023-10-13T01:31:11;13.20;;;6.75;;
64061;SDS011;50308;47.438;-1.528;2023-10-13T01:33:58;13.15;;;6.32;;
64061;SDS011;50308;47.438;-1.528;2023-10-13T01:36:26;10.57;;;6.03;;
64061;SDS011;50308;47.438;-1.528;2023-10-13T01:38:52;10.80;;;6.60;;
64061;SDS011;50308;47.438;-1.528;2023-10-13T01:41:19;13.10;;;6.60;;
64061;SDS011;50308;47.438;-1.528;2023-10-13T01:43:47;10.80;;;6.10;;
64061;SDS011;50308;47.438;-1.528;2023-10-13T01:46:14;9.20;;;6.53;;
64061;SDS011;50308;47.438;-1.528;2023-10-13T01:48:41;11.05;;;7.28;;
64061;SDS011;50308;47.438;-1.528;2023-10-13T01:51:08;10.98;;;6.47;;
64061;SDS011;50308;47.438;-1.528;2023-10-13T01:53:37;14.15;;;7.18;;
64061;SDS011;50308;47.438;-1.528;2023-10-13T01:56:04;10.15;;;6.75;;
64061;SDS011;50308;47.438;-1.528;2023-10-13T01:58:35;11.43;;;6.35;;
64061;SDS011;50308;47.438;-1.528;2023-10-13T02:01:02;11.57;;;7.20;;
64061;SDS011;50308;47.438;-1.528;2023-10-13T02:03:32;10.10;;;7.05;;
64061;SDS011;50308;47.438;-1.528;2023-10-13T02:05:58;10.77;;;6.88;;
64061;SDS011;50308;47.438;-1.528;2023-10-13T02:08:29;11.10;;;7.15;;
64061;SDS011;50308;47.438;-1.528;2023-10-13T02:10:56;15.95;;;6.90;;
64061;SDS011;50308;47.438;-1.528;2023-10-13T02:13:24;11.60;;;7.72;;
64061;SDS011;50308;47.438;-1.528;2023-10-13T02:15:53;10.85;;;6.30;;
64061;SDS011;50308;47.438;-1.528;2023-10-13T02:18:28;11.75;;;7.55;;
64061;SDS011;50308;47.438;-1.528;2023-10-13T02:21:06;14.65;;;7.18;;
64061;SDS011;50308;47.438;-1.528;2023-10-13T02:23:38;9.77;;;7.00;;
64061;SDS011;50308;47.438;-1.528;2023-10-13T02:26:12;12.13;;;7.10;;
64061;SDS011;50308;47.438;-1.528;2023-10-13T02:28:46;9.93;;;7.10;;
64061;SDS011;50308;47.438;-1.528;2023-10-13T02:31:17;10.57;;;6.95;;
64061;SDS011;50308;47.438;-1.528;2023-10-13T02:33:44;13.55;;;8.57;;
64061;SDS011;50308;47.438;-1.528;2023-10-13T02:36:10;11.20;;;6.95;;
64061;SDS011;50308;47.438;-1.528;2023-10-13T02:38:37;12.88;;;7.93;;
64061;SDS011;50308;47.438;-1.528;2023-10-13T02:41:03;9.68;;;6.90;;
64061;SDS011;50308;47.438;-1.528;2023-10-13T02:43:35;12.48;;;7.93;;
64061;SDS011;50308;47.438;-1.528;2023-10-13T02:46:01;11.27;;;7.15;;
64061;SDS011;50308;47.438;-1.528;2023-10-13T02:48:28;11.60;;;7.05;;
64061;SDS011;50308;47.438;-1.528;2023-10-13T02:51:07;12.00;;;8.05;;
64061;SDS011;50308;47.438;-1.528;2023-10-13T02:53:46;11.95;;;7.82;;
64061;SDS011;50308;47.438;-1.528;2023-10-13T02:56:13;11.02;;;7.57;;
64061;SDS011;50308;47.438;-1.528;2023-10-13T02:58:45;11.52;;;7.43;;
64061;SDS011;50308;47.438;-1.528;2023-10-13T03:01:31;11.75;;;7.47;;
64061;SDS011;50308;47.438;-1.528;2023-10-13T03:03:59;11.10;;;6.90;;
64061;SDS011;50308;47.438;-1.528;2023-10-13T03:06:34;10.20;;;6.80;;
64061;SDS011;50308;47.438;-1.528;2023-10-13T03:09:10;11.00;;;6.68;;
64061;SDS011;50308;47.438;-1.528;2023-10-13T03:11:49;10.07;;;7.47;;
64061;SDS011;50308;47.438;-1.528;2023-10-13T03:14:19;10.52;;;7.03;;
64061;SDS011;50308;47.438;-1.528;2023-10-13T03:17:00;9.95;;;6.95;;
64061;SDS011;50308;47.438;-1.528;2023-10-13T03:19:28;11.93;;;6.90;;
64061;SDS011;50308;47.438;-1.528;2023-10-13T03:22:00;10.27;;;7.60;;
64061;SDS011;50308;47.438;-1.528;2023-10-13T03:24:41;12.57;;;7.55;;
64061;SDS011;50308;47.438;-1.528;2023-10-13T03:27:11;8.30;;;6.70;;
64061;SDS011;50308;47.438;-1.528;2023-10-13T03:29:49;7.95;;;6.57;;
64061;SDS011;50308;47.438;-1.528;2023-10-13T03:32:21;9.25;;;7.20;;
64061;SDS011;50308;47.438;-1.528;2023-10-13T03:34:51;12.53;;;7.77;;
64061;SDS011;50308;47.438;-1.528;2023-10-13T03:37:22;10.88;;;7.78;;
64061;SDS011;50308;47.438;-1.528;2023-10-13T03:40:03;8.90;;;6.50;;
64061;SDS011;50308;47.438;-1.528;2023-10-13T03:42:55;10.30;;;7.03;;
64061;SDS011;50308;47.438;-1.528;2023-10-13T03:45:50;10.73;;;7.38;;
64061;SDS011;50308;47.438;-1.528;2023-10-13T03:48:26;12.00;;;6.90;;
64061;SDS011;50308;47.438;-1.528;2023-10-13T03:50:52;11.18;;;6.80;;
64061;SDS011;50308;47.438;-1.528;2023-10-13T03:53:35;8.50;;;6.68;;
64061;SDS011;50308;47.438;-1.528;2023-10-13T03:56:15;12.10;;;7.22;;
64061;SDS011;50308;47.438;-1.528;2023-10-13T03:58:49;12.80;;;6.85;;
64061;SDS011;50308;47.438;-1.528;2023-10-13T04:01:14;15.20;;;7.22;;
64061;SDS011;50308;47.438;-1.528;2023-10-13T04:03:42;10.75;;;7.53;;
64061;SDS011;50308;47.438;-1.528;2023-10-13T04:06:28;11.48;;;7.53;;
64061;SDS011;50308;47.438;-1.528;2023-10-13T04:09:18;10.77;;;7.07;;
64061;SDS011;50308;47.438;-1.528;2023-10-13T04:11:55;10.50;;;7.00;;
64061;SDS011;50308;47.438;-1.528;2023-10-13T04:14:27;10.00;;;6.90;;
64061;SDS011;50308;47.438;-1.528;2023-10-13T04:17:18;11.55;;;7.15;;
64061;SDS011;50308;47.438;-1.528;2023-10-13T04:19:55;10.10;;;6.25;;
64061;SDS011;50308;47.438;-1.528;2023-10-13T04:22:40;10.95;;;7.22;;
64061;SDS011;50308;47.438;-1.528;2023-10-13T04:27:59;10.68;;;6.68;;
64061;SDS011;50308;47.438;-1.528;2023-10-13T04:33:22;11.98;;;6.50;;
64061;SDS011;50308;47.438;-1.528;2023-10-13T04:38:49;9.90;;;6.68;;
64061;SDS011;50308;47.438;-1.528;2023-10-13T04:41:26;9.73;;;6.90;;
64061;SDS011;50308;47.438;-1.528;2023-10-13T04:44:04;9.13;;;6.95;;
64061;SDS011;50308;47.438;-1.528;2023-10-13T04:46:52;9.73;;;6.55;;
64061;SDS011;50308;47.438;-1.528;2023-10-13T04:49:22;8.45;;;6.32;;
64061;SDS011;50308;47.438;-1.528;2023-10-13T04:52:03;14.95;;;7.60;;
64061;SDS011;50308;47.438;-1.528;2023-10-13T04:54:33;11.05;;;7.00;;
64061;SDS011;50308;47.438;-1.528;2023-10-13T04:57:10;11.48;;;7.00;;
64061;SDS011;50308;47.438;-1.528;2023-10-13T04:59:49;9.98;;;6.95;;
64061;SDS011;50308;47.438;-1.528;2023-10-13T05:02:27;9.35;;;7.18;;
64061;SDS011;50308;47.438;-1.528;2023-10-13T05:05:07;12.18;;;7.15;;
64061;SDS011;50308;47.438;-1.528;2023-10-13T05:07:42;8.48;;;6.05;;
64061;SDS011;50308;47.438;-1.528;2023-10-13T05:10:27;10.60;;;7.15;;
64061;SDS011;50308;47.438;-1.528;2023-10-13T05:13:12;11.00;;;7.18;;
64061;SDS011;50308;47.438;-1.528;2023-10-13T05:15:56;11.40;;;7.15;;
64061;SDS011;50308;47.438;-1.528;2023-10-13T05:18:40;9.65;;;6.43;;
64061;SDS011;50308;47.438;-1.528;2023-10-13T05:21:24;10.95;;;6.35;;
64061;SDS011;50308;47.438;-1.528;2023-10-13T05:24:09;11.85;;;6.95;;
64061;SDS011;50308;47.438;-1.528;2023-10-13T05:26:53;15.18;;;7.40;;
64061;SDS011;50308;47.438;-1.528;2023-10-13T05:29:41;15.10;;;7.22;;
64061;SDS011;50308;47.438;-1.528;2023-10-13T05:32:26;12.25;;;7.28;;
64061;SDS011;50308;47.438;-1.528;2023-10-13T05:35:13;11.65;;;7.05;;
64061;SDS011;50308;47.438;-1.528;2023-10-13T05:37:58;12.13;;;6.78;;
64061;SDS011;50308;47.438;-1.528;2023-10-13T05:40:53;10.73;;;7.00;;
64061;SDS011;50308;47.438;-1.528;2023-10-13T05:43:45;10.02;;;6.18;;
64061;SDS011;50308;47.438;-1.528;2023-10-13T05:46:29;10.70;;;6.35;;
64061;SDS011;50308;47.438;-1.528;2023-10-13T05:49:04;11.57;;;6.80;;
64061;SDS011;50308;47.438;-1.528;2023-10-13T05:51:31;10.02;;;7.53;;
64061;SDS011;50308;47.438;-1.528;2023-10-13T05:54:01;9.43;;;6.80;;
64061;SDS011;50308;47.438;-1.528;2023-10-13T05:59:34;10.52;;;6.70;;
64061;SDS011;50308;47.438;-1.528;2023-10-13T06:02:20;10.70;;;7.38;;
64061;SDS011;50308;47.438;-1.528;2023-10-13T06:05:06;9.80;;;6.90;;
64061;SDS011;50308;47.438;-1.528;2023-10-13T06:07:51;11.35;;;6.95;;
64061;SDS011;50308;47.438;-1.528;2023-10-13T06:10:36;11.38;;;6.70;;
64061;SDS011;50308;47.438;-1.528;2023-10-13T06:13:21;8.57;;;6.63;;
64061;SDS011;50308;47.438;-1.528;2023-10-13T06:16:09;11.00;;;6.47;;
64061;SDS011;50308;47.438;-1.528;2023-10-13T06:18:58;10.40;;;6.90;;
64061;SDS011;50308;47.438;-1.528;2023-10-13T06:21:43;9.93;;;7.07;;
64061;SDS011;50308;47.438;-1.528;2023-10-13T06:24:27;12.98;;;7.07;;
64061;SDS011;50308;47.438;-1.528;2023-10-13T06:27:12;10.00;;;6.65;;
64061;SDS011;50308;47.438;-1.528;2023-10-13T06:29:57;11.23;;;6.95;;
64061;SDS011;50308;47.438;-1.528;2023-10-13T06:32:23;13.25;;;7.25;;
64061;SDS011;50308;47.438;-1.528;2023-10-13T06:34:59;10.50;;;7.45;;
64061;SDS011;50308;47.438;-1.528;2023-10-13T06:37:32;15.13;;;7.65;;
64061;SDS011;50308;47.438;-1.528;2023-10-13T06:40:02;10.02;;;7.15;;
64061;SDS011;50308;47.438;-1.528;2023-10-13T06:42:50;13.23;;;7.75;;
64061;SDS011;50308;47.438;-1.528;2023-10-13T06:45:15;9.88;;;7.57;;
64061;SDS011;50308;47.438;-1.528;2023-10-13T06:47:46;14.40;;;7.60;;
64061;SDS011;50308;47.438;-1.528;2023-10-13T06:50:12;12.30;;;8.15;;
64061;SDS011;50308;47.438;-1.528;2023-10-13T06:52:44;11.50;;;7.43;;
64061;SDS011;50308;47.438;-1.528;2023-10-13T06:57:56;12.30;;;7.82;;
64061;SDS011;50308;47.438;-1.528;2023-10-13T07:00:27;10.90;;;8.10;;
64061;SDS011;50308;47.438;-1.528;2023-10-13T07:03:00;11.15;;;7.55;;
64061;SDS011;50308;47.438;-1.528;2023-10-13T07:05:39;9.95;;;7.70;;
64061;SDS011;50308;47.438;-1.528;2023-10-13T07:08:06;15.55;;;7.90;;
64061;SDS011;50308;47.438;-1.528;2023-10-13T07:10:32;12.23;;;8.00;;
64061;SDS011;50308;47.438;-1.528;2023-10-13T07:13:13;11.60;;;7.70;;
64061;SDS011;50308;47.438;-1.528;2023-10-13T07:15:39;10.88;;;7.53;;
64061;SDS011;50308;47.438;-1.528;2023-10-13T07:20:40;10.93;;;7.13;;
64061;SDS011;50308;47.438;-1.528;2023-10-13T07:23:10;10.80;;;7.25;;
64061;SDS011;50308;47.438;-1.528;2023-10-13T07:25:56;12.40;;;7.73;;
64061;SDS011;50308;47.438;-1.528;2023-10-13T07:28:31;11.73;;;7.47;;
64061;SDS011;50308;47.438;-1.528;2023-10-13T07:31:02;9.75;;;7.15;;
64061;SDS011;50308;47.438;-1.528;2023-10-13T07:33:28;10.55;;;7.63;;
64061;SDS011;50308;47.438;-1.528;2023-10-13T07:35:59;11.05;;;7.25;;
64061;SDS011;50308;47.438;-1.528;2023-10-13T07:38:53;10.35;;;7.90;;
64061;SDS011;50308;47.438;-1.528;2023-10-13T07:41:37;10.93;;;8.13;;
64061;SDS011;50308;47.438;-1.528;2023-10-13T07:44:02;12.35;;;7.68;;
64061;SDS011;50308;47.438;-1.528;2023-10-13T07:46:30;11.25;;;7.38;;
64061;SDS011;50308;47.438;-1.528;2023-10-13T07:48:58;9.43;;;7.07;;
64061;SDS011;50308;47.438;-1.528;2023-10-13T07:51:36;8.52;;;7.43;;
64061;SDS011;50308;47.438;-1.528;2023-10-13T07:54:14;9.00;;;7.57;;
64061;SDS011;50308;47.438;-1.528;2023-10-13T07:56:47;10.15;;;7.78;;
64061;SDS011;50308;47.438;-1.528;2023-10-13T07:59:13;11.00;;;7.95;;
64061;SDS011;50308;47.438;-1.528;2023-10-13T08:01:40;10.70;;;7.55;;
64061;SDS011;50308;47.438;-1.528;2023-10-13T08:06:39;10.70;;;7.25;;
64061;SDS011;50308;47.438;-1.528;2023-10-13T08:09:08;9.45;;;7.72;;
64061;SDS011;50308;47.438;-1.528;2023-10-13T08:11:34;11.45;;;7.43;;
64061;SDS011;50308;47.438;-1.528;2023-10-13T08:14:02;9.38;;;7.88;;
64061;SDS011;50308;47.438;-1.528;2023-10-13T08:16:41;9.52;;;7.57;;
64061;SDS011;50308;47.438;-1.528;2023-10-13T08:19:19;15.23;;;8.48;;
64061;SDS011;50308;47.438;-1.528;2023-10-13T08:21:52;9.60;;;7.88;;
64061;SDS011;50308;47.438;-1.528;2023-10-13T08:24:41;11.68;;;7.32;;
64061;SDS011;50308;47.438;-1.528;2023-10-13T08:27:07;11.93;;;8.18;;
64061;SDS011;50308;47.438;-1.528;2023-10-13T08:29:51;10.15;;;7.60;;
64061;SDS011;50308;47.438;-1.528;2023-10-13T08:32:20;11.38;;;7.95;;
64061;SDS011;50308;47.438;-1.528;2023-10-13T08:34:52;10.48;;;7.70;;
64061;SDS011;50308;47.438;-1.528;2023-10-13T08:37:45;10.35;;;7.65;;
64061;SDS011;50308;47.438;-1.528;2023-10-13T08:40:16;9.55;;;7.93;;
64061;SDS011;50308;47.438;-1.528;2023-10-13T08:43:05;9.80;;;7.57;;
64061;SDS011;50308;47.438;-1.528;2023-10-13T08:45:31;12.30;;;7.60;;
64061;SDS011;50308;47.438;-1.528;2023-10-13T08:47:59;10.25;;;7.60;;
64061;SDS011;50308;47.438;-1.528;2023-10-13T08:53:19;10.02;;;7.05;;
64061;SDS011;50308;47.438;-1.528;2023-10-13T08:56:05;10.73;;;7.28;;
64061;SDS011;50308;47.438;-1.528;2023-10-13T08:58:35;9.83;;;8.07;;
64061;SDS011;50308;47.438;-1.528;2023-10-13T09:01:18;9.88;;;7.63;;
64061;SDS011;50308;47.438;-1.528;2023-10-13T09:03:58;9.85;;;6.82;;
64061;SDS011;50308;47.438;-1.528;2023-10-13T09:06:56;8.20;;;7.20;;
64061;SDS011;50308;47.438;-1.528;2023-10-13T09:09:50;11.38;;;7.45;;
64061;SDS011;50308;47.438;-1.528;2023-10-13T09:14:58;9.63;;;7.32;;
64061;SDS011;50308;47.438;-1.528;2023-10-13T09:17:42;11.75;;;7.65;;
64061;SDS011;50308;47.438;-1.528;2023-10-13T09:20:38;10.10;;;7.10;;
64061;SDS011;50308;47.438;-1.528;2023-10-13T09:23:08;8.35;;;7.07;;
64061;SDS011;50308;47.438;-1.528;2023-10-13T09:25:35;12.57;;;6.95;;
64061;SDS011;50308;47.438;-1.528;2023-10-13T09:28:13;9.20;;;7.60;;
64061;SDS011;50308;47.438;-1.528;2023-10-13T09:30:46;11.18;;;6.95;;
64061;SDS011;50308;47.438;-1.528;2023-10-13T09:33:13;11.98;;;7.10;;
64061;SDS011;50308;47.438;-1.528;2023-10-13T09:36:12;12.75;;;6.82;;
64061;SDS011;50308;47.438;-1.528;2023-10-13T09:38:42;14.70;;;7.00;;
64061;SDS011;50308;47.438;-1.528;2023-10-13T09:41:28;13.40;;;7.80;;
64061;SDS011;50308;47.438;-1.528;2023-10-13T09:43:57;16.10;;;7.90;;
64061;SDS011;50308;47.438;-1.528;2023-10-13T09:46:23;15.35;;;6.63;;
64061;SDS011;50308;47.438;-1.528;2023-10-13T09:48:59;18.75;;;7.03;;
64061;SDS011;50308;47.438;-1.528;2023-10-13T09:51:58;18.48;;;7.22;;
64061;SDS011;50308;47.438;-1.528;2023-10-13T09:54:29;17.13;;;6.38;;
64061;SDS011;50308;47.438;-1.528;2023-10-13T09:57:12;16.90;;;7.13;;
64061;SDS011;50308;47.438;-1.528;2023-10-13T09:59:54;16.70;;;6.90;;
64061;SDS011;50308;47.438;-1.528;2023-10-13T10:02:31;14.02;;;6.57;;
64061;SDS011;50308;47.438;-1.528;2023-10-13T10:04:57;19.70;;;6.95;;
64061;SDS011;50308;47.438;-1.528;2023-10-13T10:07:56;16.60;;;6.53;;
64061;SDS011;50308;47.438;-1.528;2023-10-13T10:13:44;18.75;;;6.70;;
64061;SDS011;50308;47.438;-1.528;2023-10-13T10:16:26;17.90;;;6.53;;
64061;SDS011;50308;47.438;-1.528;2023-10-13T10:19:20;16.23;;;6.55;;
64061;SDS011;50308;47.438;-1.528;2023-10-13T10:21:46;17.45;;;6.32;;
64061;SDS011;50308;47.438;-1.528;2023-10-13T10:24:16;20.27;;;6.70;;
64061;SDS011;50308;47.438;-1.528;2023-10-13T10:26:54;17.48;;;7.22;;
64061;SDS011;50308;47.438;-1.528;2023-10-13T10:29:21;17.77;;;7.22;;
64061;SDS011;50308;47.438;-1.528;2023-10-13T10:31:47;14.30;;;6.03;;
64061;SDS011;50308;47.438;-1.528;2023-10-13T10:34:13;20.48;;;6.63;;
64061;SDS011;50308;47.438;-1.528;2023-10-13T10:36:45;15.13;;;6.55;;
64061;SDS011;50308;47.438;-1.528;2023-10-13T10:39:12;17.25;;;7.15;;
64061;SDS011;50308;47.438;-1.528;2023-10-13T10:41:38;11.98;;;6.32;;
64061;SDS011;50308;47.438;-1.528;2023-10-13T10:44:24;15.15;;;5.97;;
64061;SDS011;50308;47.438;-1.528;2023-10-13T10:47:11;15.98;;;6.72;;
64061;SDS011;50308;47.438;-1.528;2023-10-13T10:49:44;21.95;;;7.03;;
64061;SDS011;50308;47.438;-1.528;2023-10-13T10:52:11;18.17;;;7.28;;
64061;SDS011;50308;47.438;-1.528;2023-10-13T10:54:43;14.23;;;6.93;;
64061;SDS011;50308;47.438;-1.528;2023-10-13T10:57:09;11.60;;;6.20;;
64061;SDS011;50308;47.438;-1.528;2023-10-13T10:59:37;16.35;;;6.47;;
64061;SDS011;50308;47.438;-1.528;2023-10-13T11:02:03;17.95;;;6.70;;
64061;SDS011;50308;47.438;-1.528;2023-10-13T11:04:32;14.40;;;6.13;;
64061;SDS011;50308;47.438;-1.528;2023-10-13T11:07:06;15.10;;;6.22;;
64061;SDS011;50308;47.438;-1.528;2023-10-13T11:09:33;16.67;;;7.15;;
64061;SDS011;50308;47.438;-1.528;2023-10-13T11:14:39;15.88;;;7.70;;
64061;SDS011;50308;47.438;-1.528;2023-10-13T11:17:04;15.73;;;7.30;;
64061;SDS011;50308;47.438;-1.528;2023-10-13T11:19:41;15.13;;;6.80;;
64061;SDS011;50308;47.438;-1.528;2023-10-13T11:22:15;15.85;;;7.97;;
64061;SDS011;50308;47.438;-1.528;2023-10-13T11:25:01;19.52;;;9.93;;
64061;SDS011;50308;47.438;-1.528;2023-10-13T11:27:39;18.80;;;8.82;;
64061;SDS011;50308;47.438;-1.528;2023-10-13T11:30:13;24.17;;;13.23;;
64061;SDS011;50308;47.438;-1.528;2023-10-13T11:33:07;23.77;;;15.18;;
64061;SDS011;50308;47.438;-1.528;2023-10-13T11:35:35;28.58;;;16.02;;
64061;SDS011;50308;47.438;-1.528;2023-10-13T11:38:34;26.38;;;18.73;;
64061;SDS011;50308;47.438;-1.528;2023-10-13T11:41:08;34.00;;;21.77;;
64061;SDS011;50308;47.438;-1.528;2023-10-13T11:43:40;34.05;;;21.92;;
64061;SDS011;50308;47.438;-1.528;2023-10-13T11:46:24;37.00;;;25.90;;
64061;SDS011;50308;47.438;-1.528;2023-10-13T11:49:05;35.38;;;24.60;;
64061;SDS011;50308;47.438;-1.528;2023-10-13T11:51:38;37.00;;;26.27;;
64061;SDS011;50308;47.438;-1.528;2023-10-13T11:54:04;38.83;;;26.80;;
64061;SDS011;50308;47.438;-1.528;2023-10-13T11:56:30;39.42;;;26.98;;
64061;SDS011;50308;47.438;-1.528;2023-10-13T11:58:56;40.42;;;26.88;;
64061;SDS011;50308;47.438;-1.528;2023-10-13T12:04:11;37.67;;;26.35;;
64061;SDS011;50308;47.438;-1.528;2023-10-13T12:06:55;38.03;;;27.63;;
64061;SDS011;50308;47.438;-1.528;2023-10-13T12:09:39;37.50;;;27.40;;
64061;SDS011;50308;47.438;-1.528;2023-10-13T12:12:22;41.72;;;27.75;;
64061;SDS011;50308;47.438;-1.528;2023-10-13T12:14:48;37.47;;;28.08;;
64061;SDS011;50308;47.438;-1.528;2023-10-13T12:19:54;42.25;;;30.75;;
64061;SDS011;50308;47.438;-1.528;2023-10-13T12:22:22;46.17;;;31.45;;
64061;SDS011;50308;47.438;-1.528;2023-10-13T12:24:56;44.70;;;33.38;;
64061;SDS011;50308;47.438;-1.528;2023-10-13T12:27:22;48.08;;;33.50;;
64061;SDS011;50308;47.438;-1.528;2023-10-13T12:30:00;48.17;;;36.00;;
64061;SDS011;50308;47.438;-1.528;2023-10-13T12:32:32;52.17;;;36.05;;
64061;SDS011;50308;47.438;-1.528;2023-10-13T12:34:59;50.03;;;38.00;;
64061;SDS011;50308;47.438;-1.528;2023-10-13T12:37:45;57.05;;;40.22;;
64061;SDS011;50308;47.438;-1.528;2023-10-13T12:40:14;52.25;;;38.97;;
64061;SDS011;50308;47.438;-1.528;2023-10-13T12:43:00;56.53;;;41.67;;
64061;SDS011;50308;47.438;-1.528;2023-10-13T12:45:44;56.58;;;41.35;;
64061;SDS011;50308;47.438;-1.528;2023-10-13T12:48:31;51.17;;;41.53;;
64061;SDS011;50308;47.438;-1.528;2023-10-13T12:51:17;59.35;;;42.63;;
64061;SDS011;50308;47.438;-1.528;2023-10-13T12:53:49;53.67;;;42.60;;
64061;SDS011;50308;47.438;-1.528;2023-10-13T12:56:16;51.97;;;43.58;;
64061;SDS011;50308;47.438;-1.528;2023-10-13T12:58:43;51.35;;;41.42;;
64061;SDS011;50308;47.438;-1.528;2023-10-13T13:01:19;53.15;;;41.53;;
64061;SDS011;50308;47.438;-1.528;2023-10-13T13:03:46;48.95;;;40.75;;
64061;SDS011;50308;47.438;-1.528;2023-10-13T13:06:19;52.00;;;39.08;;
64061;SDS011;50308;47.438;-1.528;2023-10-13T13:08:54;51.00;;;38.97;;
64061;SDS011;50308;47.438;-1.528;2023-10-13T13:11:21;55.15;;;36.15;;
64061;SDS011;50308;47.438;-1.528;2023-10-13T13:13:47;42.65;;;34.13;;
64061;SDS011;50308;47.438;-1.528;2023-10-13T13:16:17;47.67;;;33.33;;
64061;SDS011;50308;47.438;-1.528;2023-10-13T13:18:44;40.67;;;31.95;;
64061;SDS011;50308;47.438;-1.528;2023-10-13T13:21:10;45.50;;;31.13;;
64061;SDS011;50308;47.438;-1.528;2023-10-13T13:23:37;37.42;;;31.00;;
64061;SDS011;50308;47.438;-1.528;2023-10-13T13:26:05;44.40;;;30.85;;
64061;SDS011;50308;47.438;-1.528;2023-10-13T13:28:41;48.45;;;31.00;;
64061;SDS011;50308;47.438;-1.528;2023-10-13T13:31:08;38.63;;;29.40;;
64061;SDS011;50308;47.438;-1.528;2023-10-13T13:33:37;43.38;;;29.52;;
64061;SDS011;50308;47.438;-1.528;2023-10-13T13:36:07;42.10;;;29.90;;
64061;SDS011;50308;47.438;-1.528;2023-10-13T13:38:33;38.70;;;27.05;;
64061;SDS011;50308;47.438;-1.528;2023-10-13T13:40:59;37.80;;;28.33;;
64061;SDS011;50308;47.438;-1.528;2023-10-13T13:43:27;39.08;;;28.50;;
64061;SDS011;50308;47.438;-1.528;2023-10-13T13:45:58;38.53;;;28.48;;
64061;SDS011;50308;47.438;-1.528;2023-10-13T13:48:26;41.58;;;26.75;;
64061;SDS011;50308;47.438;-1.528;2023-10-13T13:50:53;35.53;;;26.73;;
64061;SDS011;50308;47.438;-1.528;2023-10-13T13:53:28;42.33;;;27.95;;
64061;SDS011;50308;47.438;-1.528;2023-10-13T13:55:59;40.13;;;27.42;;
64061;SDS011;50308;47.438;-1.528;2023-10-13T13:58:29;46.45;;;26.95;;
64061;SDS011;50308;47.438;-1.528;2023-10-13T14:01:02;42.38;;;27.58;;
64061;SDS011;50308;47.438;-1.528;2023-10-13T14:03:41;41.05;;;27.83;;
64061;SDS011;50308;47.438;-1.528;2023-10-13T14:06:19;37.15;;;27.02;;
64061;SDS011;50308;47.438;-1.528;2023-10-13T14:08:49;41.83;;;28.15;;
64061;SDS011;50308;47.438;-1.528;2023-10-13T14:11:22;42.65;;;29.08;;
64061;SDS011;50308;47.438;-1.528;2023-10-13T14:14:07;48.22;;;30.02;;
64061;SDS011;50308;47.438;-1.528;2023-10-13T14:16:46;45.50;;;30.25;;
64061;SDS011;50308;47.438;-1.528;2023-10-13T14:19:14;44.67;;;31.20;;
64061;SDS011;50308;47.438;-1.528;2023-10-13T14:21:51;41.60;;;30.30;;
64061;SDS011;50308;47.438;-1.528;2023-10-13T14:24:18;45.20;;;31.08;;
64061;SDS011;50308;47.438;-1.528;2023-10-13T14:26:52;45.05;;;29.88;;
64061;SDS011;50308;47.438;-1.528;2023-10-13T14:29:19;40.83;;;28.20;;
64061;SDS011;50308;47.438;-1.528;2023-10-13T14:31:44;41.22;;;25.58;;
64061;SDS011;50308;47.438;-1.528;2023-10-13T14:34:13;35.40;;;22.45;;
64061;SDS011;50308;47.438;-1.528;2023-10-13T14:36:40;32.55;;;19.63;;
64061;SDS011;50308;47.438;-1.528;2023-10-13T14:39:06;31.75;;;19.15;;
64061;SDS011;50308;47.438;-1.528;2023-10-13T14:41:37;30.75;;;18.02;;
64061;SDS011;50308;47.438;-1.528;2023-10-13T14:44:03;28.23;;;17.33;;
64061;SDS011;50308;47.438;-1.528;2023-10-13T14:46:32;29.02;;;15.18;;
64061;SDS011;50308;47.438;-1.528;2023-10-13T14:49:04;23.92;;;14.07;;
64061;SDS011;50308;47.438;-1.528;2023-10-13T14:51:29;21.67;;;12.20;;
64061;SDS011;50308;47.438;-1.528;2023-10-13T14:53:56;20.25;;;9.00;;
64061;SDS011;50308;47.438;-1.528;2023-10-13T14:56:25;14.13;;;7.20;;
64061;SDS011;50308;47.438;-1.528;2023-10-13T14:58:55;15.27;;;6.72;;
64061;SDS011;50308;47.438;-1.528;2023-10-13T15:01:21;14.43;;;5.80;;
64061;SDS011;50308;47.438;-1.528;2023-10-13T15:03:52;10.65;;;5.47;;
64061;SDS011;50308;47.438;-1.528;2023-10-13T15:06:23;12.43;;;4.40;;
64061;SDS011;50308;47.438;-1.528;2023-10-13T15:08:54;11.10;;;4.60;;
64061;SDS011;50308;47.438;-1.528;2023-10-13T15:11:21;12.45;;;3.97;;
64061;SDS011;50308;47.438;-1.528;2023-10-13T15:13:51;15.55;;;4.43;;
64061;SDS011;50308;47.438;-1.528;2023-10-13T15:16:24;13.38;;;3.45;;
64061;SDS011;50308;47.438;-1.528;2023-10-13T15:18:52;9.82;;;3.92;;
64061;SDS011;50308;47.438;-1.528;2023-10-13T15:21:21;12.13;;;3.83;;
64061;SDS011;50308;47.438;-1.528;2023-10-13T15:23:52;13.20;;;2.88;;
64061;SDS011;50308;47.438;-1.528;2023-10-13T15:26:21;8.63;;;2.40;;
64061;SDS011;50308;47.438;-1.528;2023-10-13T15:28:48;10.55;;;2.90;;
64061;SDS011;50308;47.438;-1.528;2023-10-13T15:31:17;9.88;;;2.90;;
64061;SDS011;50308;47.438;-1.528;2023-10-13T15:33:58;8.57;;;2.17;;
64061;SDS011;50308;47.438;-1.528;2023-10-13T15:36:24;8.90;;;2.38;;
64061;SDS011;50308;47.438;-1.528;2023-10-13T15:38:51;8.35;;;2.47;;